Time;durP1;ratioP1;P1;durP2;ratioP2;P2;SDS_P1;SDS_P2;PMS_P1;PMS_P2;Temp;Humidity;BMP_temperature;BMP_pressure;BME280_temperature;BME280_humidity;BME280_pressure;Samples;Min_cycle;Max_cycle;Signal;HPM_P1;HPM_P2
2021/12/26 00:01:28;;;;;;;6.32;4.43;;;;;;;11.05;80.89;99601.63;5052548;28;20222;-75
2021/12/26 00:03:55;;;;;;;6.05;4.10;;;;;;;11.21;78.98;99606.91;5069920;28;20689;-74
2021/12/26 00:06:26;;;;;;;9.55;4.05;;;;;;;11.14;79.27;99623.28;5062149;28;20596;-75
2021/12/26 00:08:54;;;;;;;3.40;2.90;;;;;;;11.18;78.82;99612.06;5068494;28;20187;-75
2021/12/26 00:11:21;;;;;;;2.78;2.58;;;;;;;11.36;76.52;99599.19;5064294;28;20198;-75
2021/12/26 00:13:50;;;;;;;5.65;3.05;;;;;;;11.41;75.41;99594.84;5053051;28;20200;-75
2021/12/26 00:16:17;;;;;;;2.45;2.25;;;;;;;11.47;73.89;99600.94;5053371;28;20310;-76
2021/12/26 00:18:47;;;;;;;7.30;4.13;;;;;;;11.48;74.51;99598.38;5054407;28;20292;-75
2021/12/26 00:21:14;;;;;;;5.43;4.28;;;;;;;11.54;73.81;99597.50;5052641;28;20215;-75
2021/12/26 00:23:41;;;;;;;5.38;3.97;;;;;;;11.51;74.41;99587.13;5062464;28;20628;-75
2021/12/26 00:26:08;;;;;;;4.63;3.15;;;;;;;11.50;74.42;99595.75;5072213;28;20218;-76
2021/12/26 00:28:35;;;;;;;3.00;2.72;;;;;;;11.52;73.62;99596.66;5054319;28;20203;-76
2021/12/26 00:31:03;;;;;;;3.40;3.10;;;;;;;11.53;74.03;99591.44;5052207;28;20203;-75
2021/12/26 00:33:30;;;;;;;4.47;2.78;;;;;;;11.52;74.96;99604.44;5065413;28;20218;-75
2021/12/26 00:35:59;;;;;;;5.32;2.67;;;;;;;11.63;73.45;99613.13;5071607;28;20241;-74
2021/12/26 00:38:26;;;;;;;3.10;2.80;;;;;;;11.54;73.45;99615.69;5071777;28;20199;-75
2021/12/26 00:40:52;;;;;;;4.28;3.00;;;;;;;11.62;72.69;99633.03;5070992;28;20199;-74
2021/12/26 00:43:19;;;;;;;3.00;2.63;;;;;;;11.48;74.71;99628.66;5061384;28;20681;-75
2021/12/26 00:45:46;;;;;;;2.97;2.17;;;;;;;11.40;75.01;99632.09;5071399;28;20696;-75
2021/12/26 00:48:13;;;;;;;2.60;2.20;;;;;;;11.50;74.56;99627.78;5071602;28;20194;-75
2021/12/26 00:50:42;;;;;;;3.38;3.08;;;;;;;11.50;75.28;99632.09;5071201;28;20219;-76
2021/12/26 00:53:10;;;;;;;3.83;3.40;;;;;;;11.56;74.54;99626.97;5059245;28;20198;-75
2021/12/26 00:55:38;;;;;;;7.65;3.35;;;;;;;11.59;73.74;99624.38;5063280;28;20223;-75
2021/12/26 00:58:06;;;;;;;4.07;3.67;;;;;;;11.62;73.97;99619.19;5057187;28;20731;-76
2021/12/26 01:00:36;;;;;;;4.30;3.90;;;;;;;11.22;73.97;99554.16;5071249;28;20203;-75
2021/12/26 01:03:05;;;;;;;3.67;3.33;;;;;;;11.61;73.97;99625.22;5070038;28;20199;-75
2021/12/26 01:05:34;;;;;;;3.80;3.40;;;;;;;11.61;73.77;99627.81;5071486;28;20195;-75
2021/12/26 01:08:03;;;;;;;5.38;3.47;;;;;;;11.62;73.07;99622.66;5075460;28;20202;-76
2021/12/26 01:10:35;;;;;;;5.80;3.25;;;;;;;11.71;72.92;99612.31;5057221;28;20202;-75
2021/12/26 01:13:14;;;;;;;4.47;3.40;;;;;;;11.62;73.86;99626.97;5066624;28;20216;-76
2021/12/26 01:15:42;;;;;;;3.88;3.20;;;;;;;11.58;73.35;99612.25;5056375;28;20277;-75
2021/12/26 01:18:08;;;;;;;4.50;3.53;;;;;;;11.52;73.79;99618.28;5055462;28;20191;-77
2021/12/26 01:20:44;;;;;;;4.97;3.58;;;;;;;11.51;74.14;99618.28;5055037;28;20219;-76
2021/12/26 01:23:13;;;;;;;8.70;3.55;;;;;;;11.50;74.94;99616.53;5063199;28;20584;-75
2021/12/26 01:25:42;;;;;;;6.13;3.28;;;;;;;11.51;75.61;99624.34;5055518;28;20199;-75
2021/12/26 01:28:09;;;;;;;8.70;4.40;;;;;;;11.51;75.44;99624.34;5074912;28;20195;-75
2021/12/26 01:30:38;;;;;;;8.93;4.70;;;;;;;11.58;75.22;99620.03;5073648;28;20198;-75
2021/12/26 01:33:06;;;;;;;11.65;6.15;;;;;;;11.63;74.33;99613.13;5064254;28;20195;-75
2021/12/26 01:35:33;;;;;;;8.13;4.93;;;;;;;11.18;74.87;99547.22;5055187;28;20191;-75
2021/12/26 01:38:00;;;;;;;6.43;4.60;;;;;;;11.54;76.43;99613.09;5055335;28;20198;-76
2021/12/26 01:40:27;;;;;;;6.70;4.30;;;;;;;11.51;75.71;99615.69;5062533;28;20222;-76
2021/12/26 01:43:00;;;;;;;21.13;9.63;;;;;;;11.08;75.67;99558.41;5066057;28;20199;-76
2021/12/26 01:45:27;;;;;;;10.00;5.13;;;;;;;11.45;75.69;99625.16;5071290;28;20205;-76
2021/12/26 01:47:57;;;;;;;6.75;4.32;;;;;;;11.50;75.23;99614.81;5074648;28;20206;-75
2021/12/26 01:50:24;;;;;;;23.33;12.70;;;;;;;11.47;75.48;99600.94;5074120;28;20229;-75
2021/12/26 01:52:51;;;;;;;13.63;7.95;;;;;;;11.28;78.53;99619.03;5072962;28;20218;-75
2021/12/26 01:55:26;;;;;;;12.98;6.20;;;;;;;11.30;79.52;99619.94;5069415;28;20195;-76
2021/12/26 01:57:58;;;;;;;9.88;6.60;;;;;;;11.32;80.35;99625.09;5071468;28;20226;-76
2021/12/26 02:00:26;;;;;;;13.02;7.22;;;;;;;11.28;80.05;99629.41;5060495;28;20206;-76
2021/12/26 02:02:53;;;;;;;19.73;7.03;;;;;;;11.29;79.61;99638.06;5062699;28;20230;-76
2021/12/26 02:05:20;;;;;;;19.25;8.73;;;;;;;11.28;79.80;99632.00;5073788;28;20195;-75
2021/12/26 02:07:46;;;;;;;20.33;7.25;;;;;;;11.31;80.08;99619.03;5074097;28;20205;-76
2021/12/26 02:10:14;;;;;;;14.93;8.15;;;;;;;11.26;80.06;99623.38;5072331;28;20207;-76
2021/12/26 02:12:41;;;;;;;7.78;4.93;;;;;;;11.24;79.72;99619.88;5067656;28;20245;-75
2021/12/26 02:15:10;;;;;;;8.30;5.40;;;;;;;11.23;79.41;99620.75;5057682;28;20195;-75
2021/12/26 02:17:37;;;;;;;7.00;4.78;;;;;;;11.20;80.07;99627.66;5069359;28;20215;-76
2021/12/26 02:20:24;;;;;;;13.10;5.45;;;;;;;10.97;81.61;99614.56;5067403;28;20217;-76
2021/12/26 02:22:57;;;;;;;21.70;8.65;;;;;;;11.10;81.93;99650.06;5073304;28;20191;-75
2021/12/26 02:25:33;;;;;;;31.92;9.65;;;;;;;11.16;81.50;99651.84;5074160;28;20195;-75
2021/12/26 02:28:00;;;;;;;30.08;9.32;;;;;;;11.17;81.75;99649.25;5066264;28;20666;-76
2021/12/26 02:30:28;;;;;;;20.77;8.05;;;;;;;11.01;82.76;99625.81;5055401;28;20195;-76
2021/12/26 02:32:59;;;;;;;21.45;7.70;;;;;;;11.15;83.34;99650.97;5054099;28;20203;-75
2021/12/26 02:35:27;;;;;;;18.38;7.57;;;;;;;11.18;83.87;99651.00;5055128;28;20194;-76
2021/12/26 02:37:54;;;;;;;20.45;7.90;;;;;;;11.17;84.44;99644.06;5063395;28;20287;-76
2021/12/26 02:40:21;;;;;;;12.23;6.80;;;;;;;11.17;84.58;99638.88;5073093;28;20195;-76
2021/12/26 02:42:48;;;;;;;9.55;6.10;;;;;;;11.16;85.09;99636.28;5073471;28;20202;-75
2021/12/26 02:45:16;;;;;;;9.00;5.45;;;;;;;11.14;84.93;99635.38;5058510;28;20195;-75
2021/12/26 02:47:45;;;;;;;11.70;6.50;;;;;;;11.19;84.00;99639.75;5057655;28;20194;-75
2021/12/26 02:50:16;;;;;;;12.02;5.93;;;;;;;11.22;83.69;99644.97;5073099;28;20234;-75
2021/12/26 02:52:45;;;;;;;16.88;7.50;;;;;;;11.18;84.50;99632.84;5073739;28;20202;-75
2021/12/26 02:55:14;;;;;;;12.82;6.75;;;;;;;11.28;83.92;99650.19;5066629;28;20196;-76
2021/12/26 02:57:41;;;;;;;10.35;6.38;;;;;;;11.23;84.08;99646.72;5070770;28;20226;-75
2021/12/26 03:00:11;;;;;;;11.07;6.53;;;;;;;11.29;84.43;99641.53;5054977;28;20203;-75
2021/12/26 03:02:40;;;;;;;11.73;7.40;;;;;;;11.25;84.43;99642.38;5069979;28;20582;-76
2021/12/26 03:05:08;;;;;;;10.63;6.20;;;;;;;11.28;84.87;99649.31;5073113;28;20199;-76
2021/12/26 03:07:35;;;;;;;7.03;4.97;;;;;;;11.25;83.42;99644.97;5070733;28;20195;-75
2021/12/26 03:10:05;;;;;;;10.93;5.53;;;;;;;11.30;85.35;99653.66;5059152;28;20286;-75
2021/12/26 03:12:33;;;;;;;10.43;5.47;;;;;;;11.25;85.72;99642.38;5062006;28;20192;-76
2021/12/26 03:15:00;;;;;;;10.60;5.32;;;;;;;11.12;85.67;99614.66;5063990;28;20194;-75
2021/12/26 03:17:27;;;;;;;9.82;5.10;;;;;;;11.29;85.67;99653.66;5056566;28;20230;-76
2021/12/26 03:19:54;;;;;;;6.78;4.40;;;;;;;11.29;85.49;99659.72;5072655;28;20262;-76
2021/12/26 03:22:24;;;;;;;8.45;4.75;;;;;;;11.35;84.85;99669.25;5073167;28;20194;-75
2021/12/26 03:24:51;;;;;;;6.95;4.85;;;;;;;11.30;85.53;99661.47;5073004;28;20195;-75
2021/12/26 03:27:19;;;;;;;9.98;6.10;;;;;;;11.28;86.80;99663.16;5071208;28;20210;-77
2021/12/26 03:29:46;;;;;;;8.48;5.28;;;;;;;11.24;87.64;99656.22;5051996;28;20188;-75
2021/12/26 03:32:13;;;;;;;10.52;5.85;;;;;;;10.96;89.42;99623.19;5052766;28;20253;-75
2021/12/26 03:34:46;;;;;;;10.38;5.68;;;;;;;11.09;90.01;99663.94;5070129;28;20191;-75
2021/12/26 03:37:12;;;;;;;9.60;5.13;;;;;;;10.96;90.47;99654.31;5072824;28;20720;-76
2021/12/26 03:39:39;;;;;;;9.32;5.20;;;;;;;10.87;91.00;99646.50;5071674;28;20206;-75
2021/12/26 03:42:07;;;;;;;6.50;4.47;;;;;;;10.84;91.69;99646.47;5071776;28;20183;-75
2021/12/26 03:44:35;;;;;;;7.82;5.43;;;;;;;10.82;92.47;99638.66;5063298;28;20585;-75
2021/12/26 03:47:02;;;;;;;9.38;5.57;;;;;;;10.82;93.24;99640.38;5052632;28;20677;-76
2021/12/26 03:49:29;;;;;;;9.48;5.32;;;;;;;10.71;93.42;99618.69;5069750;28;20231;-76
2021/12/26 03:51:56;;;;;;;5.78;5.10;;;;;;;10.90;92.59;99643.91;5067510;28;20274;-75
2021/12/26 03:54:23;;;;;;;8.60;5.88;;;;;;;10.96;92.60;99646.53;5052468;28;20199;-75
2021/12/26 03:56:50;;;;;;;6.93;5.85;;;;;;;11.01;90.31;99650.03;5052907;28;20598;-75
2021/12/26 03:59:17;;;;;;;7.68;5.55;;;;;;;11.03;90.79;99660.41;5066832;28;20199;-75
2021/12/26 04:01:45;;;;;;;9.10;5.90;;;;;;;11.04;91.97;99665.63;5066388;28;20194;-75
2021/12/26 04:04:12;;;;;;;8.80;5.82;;;;;;;10.98;92.15;99663.00;5052448;28;20210;-75
2021/12/26 04:06:39;;;;;;;8.07;5.68;;;;;;;10.86;93.61;99670.69;5052705;28;20199;-75
2021/12/26 04:09:07;;;;;;;15.15;6.72;;;;;;;10.67;94.21;99674.84;5065930;28;20187;-75
2021/12/26 04:11:35;;;;;;;12.95;6.43;;;;;;;10.65;94.85;99667.91;5059752;28;20202;-75
2021/12/26 04:14:02;;;;;;;20.85;8.68;;;;;;;10.60;96.16;99669.59;5052964;28;20195;-75
2021/12/26 04:16:29;;;;;;;24.48;8.80;;;;;;;10.54;96.75;99669.56;5052044;28;20199;-75
2021/12/26 04:18:57;;;;;;;24.50;8.68;;;;;;;10.49;98.07;99668.66;5064044;28;20248;-76
2021/12/26 04:21:24;;;;;;;19.33;7.82;;;;;;;10.38;99.74;99664.22;5052348;28;20222;-75
2021/12/26 04:23:51;;;;;;;28.60;9.05;;;;;;;10.40;100.00;99683.28;5059395;28;20195;-75
2021/12/26 04:26:17;;;;;;;20.13;8.88;;;;;;;10.44;100.00;99681.56;5059494;28;20808;-75
2021/12/26 04:28:44;;;;;;;15.88;8.23;;;;;;;10.48;100.00;99688.53;5063484;28;20217;-75
2021/12/26 04:31:11;;;;;;;13.07;6.63;;;;;;;10.31;100.00;99680.56;5054176;28;20248;-75
2021/12/26 04:33:38;;;;;;;11.18;6.80;;;;;;;10.32;98.04;99702.19;5068027;28;20194;-75
2021/12/26 04:36:07;;;;;;;14.75;7.68;;;;;;;10.32;98.60;99695.28;5063410;28;20196;-77
2021/12/26 04:38:33;;;;;;;8.88;5.78;;;;;;;10.28;98.24;99701.28;5060226;28;20289;-76
2021/12/26 04:41:03;;;;;;;16.50;7.43;;;;;;;10.29;99.40;99695.25;5057777;28;20202;-75
2021/12/26 04:43:33;;;;;;;17.52;7.90;;;;;;;10.25;100.00;99700.38;5054248;28;20195;-75
2021/12/26 04:46:01;;;;;;;20.88;9.18;;;;;;;10.22;100.00;99698.63;5072668;28;20198;-75
2021/12/26 04:48:28;;;;;;;23.55;11.95;;;;;;;10.23;100.00;99686.56;5065031;28;20677;-76
2021/12/26 04:50:55;;;;;;;32.88;13.70;;;;;;;10.29;100.00;99697.84;5056857;28;20230;-75
2021/12/26 04:53:25;;;;;;;26.80;14.65;;;;;;;10.35;100.00;99703.06;5069461;28;20681;-77
2021/12/26 04:55:52;;;;;;;14.98;7.53;;;;;;;10.08;100.00;99720.91;5070922;28;20225;-75
2021/12/26 04:58:18;;;;;;;6.82;5.65;;;;;;;9.11;100.00;99735.16;5063786;28;20298;-74
2021/12/26 05:00:45;;;;;;;6.90;4.77;;;;;;;8.60;100.00;99718.78;5052883;28;20650;-74
2021/12/26 05:03:12;;;;;;;6.90;4.73;;;;;;;8.21;100.00;99748.19;5051314;28;20188;-76
2021/12/26 05:05:39;;;;;;;7.40;5.33;;;;;;;8.11;100.00;99733.38;5060334;28;20198;-74
2021/12/26 05:08:06;;;;;;;6.33;4.47;;;;;;;7.86;100.00;99723.41;5069675;28;20190;-74
2021/12/26 05:10:35;;;;;;;5.27;4.13;;;;;;;7.44;100.00;99739.75;5057254;28;20658;-74
2021/12/26 05:13:04;;;;;;;5.33;4.67;;;;;;;6.84;100.00;99731.50;5051806;28;20191;-73
2021/12/26 05:15:31;;;;;;;8.27;5.63;;;;;;;6.39;100.00;99735.47;5053372;28;20198;-74
2021/12/26 05:17:59;;;;;;;9.73;5.30;;;;;;;5.92;100.00;99736.81;5066218;28;20220;-73
2021/12/26 05:20:27;;;;;;;12.40;5.73;;;;;;;5.84;100.00;99731.41;5060689;28;20226;-74
2021/12/26 05:22:56;;;;;;;9.30;5.50;;;;;;;5.68;100.00;99729.22;5051601;28;20257;-74
2021/12/26 05:25:24;;;;;;;10.47;6.47;;;;;;;5.24;100.00;99709.06;5051376;28;20249;-74
2021/12/26 05:27:53;;;;;;;11.60;6.13;;;;;;;5.42;100.00;99754.16;5067492;28;20202;-75
2021/12/26 05:30:22;;;;;;;12.17;5.70;;;;;;;5.08;100.00;99705.16;5052541;28;20261;-74
2021/12/26 05:32:49;;;;;;;15.90;9.50;;;;;;;5.39;100.00;99748.94;5051696;28;20286;-74
2021/12/26 05:35:18;;;;;;;7.90;5.23;;;;;;;5.20;100.00;99738.06;5051330;28;20194;-74
2021/12/26 05:37:46;;;;;;;7.43;5.43;;;;;;;5.06;100.00;99757.31;5067017;28;20578;-74
2021/12/26 05:40:15;;;;;;;11.97;7.13;;;;;;;4.96;100.00;99766.41;5071192;28;20202;-74
2021/12/26 05:42:43;;;;;;;16.80;8.80;;;;;;;4.96;100.00;99766.41;5070187;28;20195;-74
2021/12/26 05:45:13;;;;;;;13.73;8.00;;;;;;;4.81;100.00;99766.81;5053945;28;20736;-73
2021/12/26 05:47:40;;;;;;;11.67;7.80;;;;;;;4.83;100.00;99754.00;5062669;28;20195;-72
2021/12/26 05:50:10;;;;;;;21.05;11.60;;;;;;;4.82;100.00;99768.53;5069962;28;20450;-74
2021/12/26 05:52:37;;;;;;;19.10;11.27;;;;;;;4.66;100.00;99735.50;5063093;28;20206;-72
2021/12/26 05:55:05;;;;;;;12.87;6.33;;;;;;;4.72;100.00;99756.22;5072514;28;20214;-71
2021/12/26 05:57:31;;;;;;;15.67;9.10;;;;;;;4.65;100.00;99753.41;5060347;28;20221;-73
2021/12/26 05:59:58;;;;;;;13.50;7.77;;;;;;;4.53;100.00;99755.59;5066582;28;20639;-73
2021/12/26 06:02:26;;;;;;;19.70;11.17;;;;;;;4.81;100.00;99761.69;5072460;28;20201;-74
2021/12/26 06:04:53;;;;;;;14.10;7.10;;;;;;;4.62;100.00;99773.84;5074271;28;20202;-73
2021/12/26 06:07:20;;;;;;;17.70;10.77;;;;;;;4.74;100.00;99770.00;5071414;28;20195;-73
2021/12/26 06:09:47;;;;;;;21.93;12.53;;;;;;;4.61;100.00;99767.84;5073290;28;20944;-74
2021/12/26 06:12:14;;;;;;;23.43;12.40;;;;;;;4.44;100.00;99733.91;5073743;28;20449;-78
2021/12/26 06:14:41;;;;;;;22.90;11.87;;;;;;;4.52;100.00;99747.00;5060791;28;20674;-75
2021/12/26 06:17:07;;;;;;;22.50;11.80;;;;;;;4.92;100.00;99774.88;5062941;28;20191;-74
2021/12/26 06:19:36;;;;;;;20.33;11.63;;;;;;;4.77;100.00;99776.94;5058903;28;20222;-73
2021/12/26 06:22:03;;;;;;;22.10;12.30;;;;;;;4.91;100.00;99779.13;5065511;28;20253;-74
2021/12/26 06:24:30;;;;;;;21.57;11.47;;;;;;;4.92;100.00;99792.84;5054139;28;20199;-75
2021/12/26 06:26:57;;;;;;;24.87;12.70;;;;;;;4.72;100.00;99745.09;5065413;28;20286;-73
2021/12/26 06:29:24;;;;;;;29.77;14.43;;;;;;;4.90;100.00;99777.38;5060813;28;20203;-74
2021/12/26 06:31:50;;;;;;;21.90;13.73;;;;;;;4.85;100.00;99778.06;5074454;28;20640;-74
2021/12/26 06:34:17;;;;;;;32.33;16.67;;;;;;;5.17;100.00;99787.69;5059858;28;20242;-72
2021/12/26 06:36:45;;;;;;;12.93;7.50;;;;;;;4.88;100.00;99797.03;5054251;28;20257;-74
2021/12/26 06:39:12;;;;;;;29.90;15.03;;;;;;;5.40;100.00;99776.41;5064384;28;20736;-75
2021/12/26 06:41:39;;;;;;;25.37;11.57;;;;;;;5.23;100.00;99785.28;5067347;28;20735;-76
2021/12/26 06:44:08;;;;;;;17.00;9.20;;;;;;;4.59;100.00;99772.06;5061011;28;20248;-74
2021/12/26 06:46:35;;;;;;;16.20;9.13;;;;;;;4.63;100.00;99811.56;5059074;28;20191;-75
2021/12/26 06:49:04;;;;;;;19.80;9.63;;;;;;;4.50;100.00;99813.69;5053541;28;20283;-75
2021/12/26 06:51:31;;;;;;;23.03;12.40;;;;;;;4.49;100.00;99814.50;5066697;28;20199;-77
2021/12/26 06:54:00;;;;;;;26.23;11.80;;;;;;;4.54;100.00;99817.22;5055104;28;20673;-77
2021/12/26 06:56:27;;;;;;;32.90;10.93;;;;;;;4.54;100.00;99816.34;5053772;28;20192;-80
2021/12/26 06:58:55;;;;;;;14.67;9.03;;;;;;;4.05;100.00;99745.38;5061398;28;20226;-75
2021/12/26 07:01:21;;;;;;;23.97;13.87;;;;;;;4.37;100.00;99798.69;5060084;28;20207;-78
2021/12/26 07:03:48;;;;;;;17.97;10.93;;;;;;;4.39;100.00;99797.03;5052315;28;20241;-76
2021/12/26 07:06:15;;;;;;;29.83;16.53;;;;;;;4.46;100.00;99790.41;5051284;28;20203;-79
2021/12/26 07:08:42;;;;;;;16.60;9.17;;;;;;;4.36;100.00;99801.19;5051248;28;20195;-77
2021/12/26 07:11:10;;;;;;;29.83;14.83;;;;;;;4.46;100.00;99809.25;5059542;28;20453;-77
2021/12/26 07:13:37;;;;;;;41.47;19.57;;;;;;;4.60;100.00;99816.59;5063839;28;20199;-77
2021/12/26 07:16:04;;;;;;;15.20;8.37;;;;;;;4.31;100.00;99808.75;5053351;28;20637;-76
2021/12/26 07:18:31;;;;;;;43.63;21.87;;;;;;;4.35;100.00;99812.31;5057519;28;20222;-77
2021/12/26 07:20:58;;;;;;;28.80;17.07;;;;;;;4.39;100.00;99811.56;5062673;28;20433;-78
2021/12/26 07:23:25;;;;;;;27.23;13.63;;;;;;;4.32;100.00;99810.47;5055226;28;20196;-76
2021/12/26 07:25:51;;;;;;;30.27;14.97;;;;;;;4.42;100.00;99812.53;5071895;28;20195;-77
2021/12/26 07:28:20;;;;;;;32.60;15.67;;;;;;;4.32;100.00;99800.22;5071924;28;20622;-77
2021/12/26 07:30:46;;;;;;;34.13;17.30;;;;;;;4.50;100.00;99808.56;5070241;28;20190;-77
2021/12/26 07:33:13;;;;;;;16.57;11.40;;;;;;;4.61;100.00;99800.34;5070509;28;20199;-76
2021/12/26 07:35:40;;;;;;;24.67;13.27;;;;;;;4.63;100.00;99803.84;5067099;28;20207;-74
2021/12/26 07:38:07;;;;;;;12.53;8.07;;;;;;;4.59;100.00;99814.84;5052884;28;20215;-75
2021/12/26 07:40:33;;;;;;;14.27;9.10;;;;;;;4.58;100.00;99818.22;5057584;28;20210;-75
2021/12/26 07:43:00;;;;;;;16.80;9.63;;;;;;;4.45;100.00;99820.38;5059603;28;20191;-76
2021/12/26 07:45:29;;;;;;;22.90;12.17;;;;;;;4.60;100.00;99816.59;5061559;28;20666;-75
2021/12/26 07:47:55;;;;;;;23.27;13.57;;;;;;;4.75;100.00;99819.66;5070537;28;20700;-77
2021/12/26 07:50:23;;;;;;;18.60;9.70;;;;;;;4.41;100.00;99800.56;5070338;28;20219;-75
2021/12/26 07:52:52;;;;;;;12.87;7.53;;;;;;;4.34;100.00;99816.56;5065497;28;20670;-75
2021/12/26 07:55:19;;;;;;;16.07;9.73;;;;;;;4.69;100.00;99819.44;5068333;28;20195;-76
2021/12/26 07:57:48;;;;;;;23.77;12.73;;;;;;;4.16;100.00;99726.09;5066969;28;20199;-77
2021/12/26 08:00:16;;;;;;;14.37;5.00;;;;;;;4.43;100.00;99821.13;5058869;28;20233;-75
2021/12/26 08:02:45;;;;;;;28.00;15.80;;;;;;;4.65;100.00;99827.88;5052358;28;20200;-75
2021/12/26 08:05:12;;;;;;;37.03;16.67;;;;;;;4.64;100.00;99833.84;5051168;28;20196;-75
2021/12/26 08:07:39;;;;;;;24.73;14.63;;;;;;;4.69;100.00;99838.31;5051062;28;20728;-74
2021/12/26 08:10:07;;;;;;;30.77;15.23;;;;;;;4.98;100.00;99829.88;5052885;28;20253;-74
2021/12/26 08:12:33;;;;;;;22.63;11.93;;;;;;;4.94;100.00;99840.88;5051251;28;20634;-73
2021/12/26 08:15:02;;;;;;;32.33;13.37;;;;;;;4.77;100.00;99841.13;5054391;28;20268;-77
2021/12/26 08:17:29;;;;;;;21.77;12.13;;;;;;;4.62;100.00;99841.47;5050800;28;20745;-72
2021/12/26 08:19:57;;;;;;;18.67;11.00;;;;;;;4.78;100.00;99848.03;5058205;28;20245;-73
2021/12/26 08:22:24;;;;;;;29.87;15.40;;;;;;;4.58;100.00;99820.78;5064396;28;20221;-74
2021/12/26 08:24:51;;;;;;;9.93;5.73;;;;;;;4.47;100.00;99829.00;5059947;28;20206;-72
2021/12/26 08:27:18;;;;;;;36.90;18.83;;;;;;;4.66;100.00;99832.19;5054792;28;20199;-73
2021/12/26 08:29:46;;;;;;;29.23;14.73;;;;;;;4.56;100.00;99801.91;5050834;28;20756;-73
2021/12/26 08:32:15;;;;;;;13.57;8.23;;;;;;;4.64;100.00;99826.16;5052389;28;20199;-74
2021/12/26 08:34:43;;;;;;;26.07;15.70;;;;;;;4.61;100.00;99815.75;5051942;28;20582;-74
2021/12/26 08:37:13;;;;;;;31.27;15.90;;;;;;;4.74;100.00;99825.63;5051516;28;20667;-75
2021/12/26 08:39:42;;;;;;;21.37;13.80;;;;;;;4.78;100.00;99817.22;5071515;28;20262;-74
2021/12/26 08:42:11;;;;;;;133.90;62.70;;;;;;;5.12;100.00;99827.75;5059561;28;20195;-73
2021/12/26 08:44:39;;;;;;;21.57;11.90;;;;;;;5.10;100.00;99811.41;5063371;28;20195;-74
2021/12/26 08:47:08;;;;;;;28.47;17.67;;;;;;;5.10;100.00;99825.97;5051144;28;20196;-74
2021/12/26 08:49:35;;;;;;;30.37;17.63;;;;;;;5.18;100.00;99829.63;5051043;28;20220;-74
2021/12/26 08:52:02;;;;;;;24.80;15.03;;;;;;;4.99;100.00;99763.97;5051589;28;20195;-75
2021/12/26 08:54:33;;;;;;;33.53;16.73;;;;;;;5.61;100.00;99821.56;5053289;28;20194;-75
2021/12/26 08:56:59;;;;;;;34.67;20.83;;;;;;;5.66;100.00;99823.47;5051577;28;20197;-75
2021/12/26 08:59:30;;;;;;;29.87;17.37;;;;;;;5.53;100.00;99825.63;5051249;28;20227;-75
2021/12/26 09:01:57;;;;;;;23.40;14.53;;;;;;;5.73;100.00;99827.97;5051352;28;20203;-76
2021/12/26 09:04:24;;;;;;;31.57;17.30;;;;;;;5.75;100.00;99836.59;5050759;28;20188;-76
2021/12/26 09:06:51;;;;;;;36.80;20.73;;;;;;;5.54;100.00;99809.34;5051997;28;20272;-75
2021/12/26 09:09:17;;;;;;;25.23;16.67;;;;;;;5.91;100.00;99837.97;5055015;28;20191;-75
2021/12/26 09:11:46;;;;;;;28.17;17.07;;;;;;;6.18;100.00;99830.16;5067424;28;20750;-75
2021/12/26 09:14:13;;;;;;;20.33;12.20;;;;;;;5.95;100.00;99820.09;5051151;28;20200;-75
2021/12/26 09:16:39;;;;;;;27.63;13.43;;;;;;;5.97;100.00;99835.56;5059845;28;20203;-73
2021/12/26 09:19:07;;;;;;;24.43;14.50;;;;;;;6.26;100.00;99826.09;5051249;28;20306;-74
2021/12/26 09:21:35;;;;;;;23.97;13.73;;;;;;;6.06;100.00;99829.81;5050959;28;20192;-75
2021/12/26 09:24:02;;;;;;;26.17;15.20;;;;;;;5.92;100.00;99832.00;5050579;28;20199;-73
2021/12/26 09:26:29;;;;;;;29.03;14.13;;;;;;;6.00;100.00;99833.06;5051540;28;20273;-74
2021/12/26 09:28:58;;;;;;;25.00;15.30;;;;;;;6.10;100.00;99799.06;5055012;28;20206;-75
2021/12/26 09:31:26;;;;;;;28.37;16.97;;;;;;;6.03;100.00;99828.00;5060032;28;20206;-74
2021/12/26 09:33:53;;;;;;;28.53;18.53;;;;;;;6.05;100.00;99826.38;5053790;28;20218;-74
2021/12/26 09:36:20;;;;;;;56.97;28.00;;;;;;;6.17;100.00;99821.56;5055530;28;20199;-74
2021/12/26 09:38:47;;;;;;;33.93;16.83;;;;;;;6.29;100.00;99811.63;5053477;28;20227;-79
2021/12/26 09:41:14;;;;;;;86.70;38.20;;;;;;;5.87;100.00;99800.13;5052506;28;20203;-75
2021/12/26 09:43:41;;;;;;;34.40;16.30;;;;;;;5.77;100.00;99782.63;5053356;28;20253;-74
2021/12/26 09:46:09;;;;;;;89.73;36.17;;;;;;;5.93;100.00;99795.13;5056126;28;20206;-73
2021/12/26 09:48:36;;;;;;;84.67;30.53;;;;;;;5.67;100.00;99775.50;5056424;28;20203;-74
2021/12/26 09:51:03;;;;;;;82.10;34.10;;;;;;;5.84;100.00;99784.56;5055257;28;20230;-75
2021/12/26 09:53:31;;;;;;;89.03;34.77;;;;;;;5.78;100.00;99781.81;5059499;28;20204;-76
2021/12/26 09:55:58;;;;;;;266.70;97.40;;;;;;;6.02;100.00;99779.97;5053616;28;20286;-75
2021/12/26 09:58:25;;;;;;;80.33;34.80;;;;;;;6.80;100.00;99736.53;5058133;28;20199;-79
2021/12/26 10:00:51;;;;;;;118.67;44.53;;;;;;;6.46;100.00;99770.84;5062186;28;20191;-74
2021/12/26 10:03:22;;;;;;;125.77;47.10;;;;;;;6.24;100.00;99777.13;5053821;28;20206;-74
2021/12/26 10:05:58;;;;;;;154.13;56.33;;;;;;;6.13;100.00;99778.56;5053901;28;20720;-74
2021/12/26 10:08:24;;;;;;;108.60;42.07;;;;;;;5.69;100.00;99781.53;5054695;28;20588;-74
2021/12/26 10:11:13;;;;;;;42.07;20.07;;;;;;;6.06;100.00;99775.78;5052608;28;20204;-75
2021/12/26 10:13:45;;;;;;;28.23;16.73;;;;;;;6.29;100.00;99787.56;5053746;28;20570;-76
2021/12/26 10:16:14;;;;;;;27.73;17.40;;;;;;;6.31;100.00;99783.34;5053911;28;20306;-75
2021/12/26 10:18:43;;;;;;;29.67;14.97;;;;;;;5.75;100.00;99772.28;5054290;28;20223;-73
2021/12/26 10:21:38;;;;;;;48.83;23.13;;;;;;;5.69;100.00;99771.25;5054053;28;20222;-72
2021/12/26 10:24:08;;;;;;;41.03;20.87;;;;;;;6.02;100.00;99779.09;5053782;28;20580;-73
2021/12/26 10:26:37;;;;;;;41.37;19.77;;;;;;;6.01;100.00;99770.50;5054006;28;20670;-73
2021/12/26 10:29:09;;;;;;;59.83;25.57;;;;;;;5.94;100.00;99760.88;5053778;28;20203;-73
2021/12/26 11:22:06;;;;;;;47.27;21.03;;;;;;;5.43;100.00;99725.06;5018250;27;3227060;-77
2021/12/26 11:24:33;;;;;;;37.90;17.30;;;;;;;5.22;100.00;99733.84;5120722;28;20512;-78
2021/12/26 11:27:02;;;;;;;38.47;14.73;;;;;;;5.25;100.00;99739.94;5115317;28;20667;-79
2021/12/26 11:29:29;;;;;;;45.67;18.83;;;;;;;5.23;100.00;99745.88;5091749;28;20198;-77
2021/12/26 11:31:56;;;;;;;31.57;14.83;;;;;;;5.01;100.00;99739.19;5089353;28;20205;-77
2021/12/26 11:34:24;;;;;;;16.63;9.20;;;;;;;4.70;100.00;99745.06;5101723;28;20201;-82
2021/12/26 11:36:51;;;;;;;32.10;15.93;;;;;;;4.82;100.00;99742.00;5114102;28;20196;-83
2021/12/26 11:39:20;;;;;;;43.27;21.60;;;;;;;4.81;100.00;99746.28;5129591;28;20196;-77
2021/12/26 11:41:55;;;;;;;35.90;17.10;;;;;;;4.96;100.00;99746.75;5128860;28;20235;-79
2021/12/26 11:44:51;;;;;;;45.47;19.67;;;;;;;5.03;100.00;99747.81;5129175;28;20192;-80
2021/12/26 11:47:40;;;;;;;28.43;13.93;;;;;;;4.98;100.00;99749.38;5105270;28;20280;-82
2021/12/26 11:50:19;;;;;;;39.50;16.20;;;;;;;4.92;100.00;99749.19;5109548;28;20281;-82
2021/12/26 11:53:08;;;;;;;21.73;12.60;;;;;;;4.71;100.00;99707.41;5106989;28;20684;-84
2021/12/26 11:55:43;;;;;;;29.20;13.70;;;;;;;4.72;100.00;99752.78;5087675;28;20198;-81
2021/12/26 11:58:29;;;;;;;35.83;17.73;;;;;;;4.86;100.00;99754.09;5093134;28;20205;-83
2021/12/26 12:01:00;;;;;;;14.70;8.30;;;;;;;4.62;100.00;99749.06;5129111;28;20224;-81
2021/12/26 12:03:30;;;;;;;24.73;12.23;;;;;;;4.63;100.00;99749.94;5129000;28;20208;-82
2021/12/26 12:05:58;;;;;;;25.03;13.03;;;;;;;4.58;100.00;99736.06;5097309;28;20218;-82
2021/12/26 12:08:30;;;;;;;41.83;16.30;;;;;;;4.30;100.00;99683.84;5094829;28;20181;-81
2021/12/26 12:11:02;;;;;;;27.97;13.37;;;;;;;4.78;100.00;99745.31;5128332;28;20865;-83
2021/12/26 12:13:50;;;;;;;32.87;13.87;;;;;;;4.71;100.00;99748.50;5088666;28;20190;-81
2021/12/26 12:16:33;;;;;;;40.47;15.90;;;;;;;4.74;100.00;99748.59;5089135;28;20198;-82
2021/12/26 12:19:04;;;;;;;39.63;16.73;;;;;;;5.01;100.00;99746.91;5103705;28;20196;-82
2021/12/26 12:21:37;;;;;;;34.63;15.37;;;;;;;5.05;100.00;99735.91;5090324;28;20241;-76